ACA846 CYUL-EDDB
Flight info
| Callsign | ACA846 |
|---|---|
| Flight time | 7h 14m |
| Altitude | 33000 |
| Route | DCT ANTEG DCT OBRON DCT MOBUB DCT EBMOS DCT CEFOU N517A MIGLI/N0466F350 N517A ALLRY/M079F360 DCT 51N050W 53N040W 55N030W 56N020W DCT PIKIL DCT SOVED/N0449F370 DCT MIMKU DCT TLA DCT RENEQ DCT BUMIL L619 VIBIS T209 OGBER OGBER1L |
| Aircraft | A21N/M-SDE2E3FGHIRWXY/LB1 |
Departure
| Time | 2026-05-04 12:55 |
|---|---|
| Airport | Montreal / Pierre Elliott Trudeau International Airport (CYUL) |
Arrival
| Time | 2026-05-04 20:09 |
|---|---|
| Airport | Berlin Brandenburg Airport (EDDB) |
| Time | Latitude | Longitude | Altitude | Speed | Heading |
|---|---|---|---|---|---|
| 2026-05-04 11:53 | 45.45980 | -73.75540 | 110 ft | 0 kts | 177° |
| 2026-05-04 12:37 | 45.45996 | -73.75542 | 109 ft | 4 kts | 174° |
| 2026-05-04 12:37 | 45.46023 | -73.75547 | 108 ft | 4 kts | 167° |
| 2026-05-04 12:38 | 45.46048 | -73.75559 | 107 ft | 4 kts | 146° |
| 2026-05-04 12:38 | 45.46062 | -73.75582 | 107 ft | 2 kts | 89° |
| 2026-05-04 12:38 | 45.46062 | -73.75585 | 107 ft | 0 kts | 88° |
| 2026-05-04 12:42 | 45.46063 | -73.75569 | 108 ft | 4 kts | 88° |
| 2026-05-04 12:42 | 45.46064 | -73.75510 | 109 ft | 6 kts | 88° |
| 2026-05-04 12:43 | 45.46065 | -73.75463 | 109 ft | 4 kts | 88° |
| 2026-05-04 12:43 | 45.46067 | -73.75410 | 110 ft | 7 kts | 82° |
| 2026-05-04 12:43 | 45.46098 | -73.75365 | 110 ft | 6 kts | 15° |
| 2026-05-04 12:43 | 45.46137 | -73.75342 | 110 ft | 7 kts | 50° |
| 2026-05-04 12:44 | 45.46143 | -73.75258 | 113 ft | 10 kts | 88° |
| 2026-05-04 12:44 | 45.46147 | -73.75122 | 113 ft | 18 kts | 87° |
| 2026-05-04 12:44 | 45.46156 | -73.74915 | 110 ft | 24 kts | 91° |
| 2026-05-04 12:44 | 45.46159 | -73.74729 | 115 ft | 12 kts | 88° |
| 2026-05-04 12:45 | 45.46158 | -73.74614 | 113 ft | 11 kts | 101° |
| 2026-05-04 12:45 | 45.46124 | -73.74509 | 112 ft | 12 kts | 96° |
| 2026-05-04 12:45 | 45.46128 | -73.74385 | 112 ft | 13 kts | 86° |
| 2026-05-04 12:45 | 45.46133 | -73.74257 | 111 ft | 13 kts | 86° |
| 2026-05-04 12:46 | 45.46138 | -73.74119 | 110 ft | 10 kts | 86° |
| 2026-05-04 12:46 | 45.46159 | -73.74027 | 107 ft | 11 kts | 45° |
| 2026-05-04 12:46 | 45.46219 | -73.73951 | 108 ft | 11 kts | 42° |
| 2026-05-04 12:46 | 45.46277 | -73.73875 | 111 ft | 12 kts | 42° |
| 2026-05-04 12:47 | 45.46319 | -73.73821 | 111 ft | 13 kts | 42° |
| 2026-05-04 12:47 | 45.46404 | -73.73710 | 112 ft | 12 kts | 43° |
| 2026-05-04 12:47 | 45.46445 | -73.73656 | 114 ft | 12 kts | 43° |
| 2026-05-04 12:47 | 45.46516 | -73.73562 | 113 ft | 16 kts | 43° |
| 2026-05-04 12:48 | 45.46604 | -73.73445 | 114 ft | 19 kts | 43° |
| 2026-05-04 12:48 | 45.46717 | -73.73295 | 113 ft | 25 kts | 40° |
| 2026-05-04 12:48 | 45.46852 | -73.73121 | 115 ft | 28 kts | 43° |
| 2026-05-04 12:48 | 45.46996 | -73.72931 | 120 ft | 27 kts | 42° |
| 2026-05-04 12:49 | 45.47135 | -73.72748 | 121 ft | 27 kts | 43° |
| 2026-05-04 12:49 | 45.47271 | -73.72569 | 119 ft | 26 kts | 42° |
| 2026-05-04 12:49 | 45.47392 | -73.72414 | 119 ft | 21 kts | 42° |
| 2026-05-04 12:49 | 45.47487 | -73.72292 | 121 ft | 15 kts | 43° |
| 2026-05-04 12:50 | 45.47556 | -73.72196 | 127 ft | 13 kts | 44° |
| 2026-05-04 12:50 | 45.47638 | -73.72093 | 127 ft | 17 kts | 41° |
| 2026-05-04 12:50 | 45.47730 | -73.71970 | 132 ft | 19 kts | 43° |
| 2026-05-04 12:50 | 45.47823 | -73.71848 | 126 ft | 9 kts | 43° |
| 2026-05-04 12:51 | 45.47847 | -73.71789 | 126 ft | 7 kts | 85° |
| 2026-05-04 12:51 | 45.47807 | -73.71713 | 126 ft | 14 kts | 141° |
| 2026-05-04 12:51 | 45.47732 | -73.71659 | 124 ft | 9 kts | 161° |
| 2026-05-04 12:51 | 45.47697 | -73.71630 | 127 ft | 3 kts | 148° |
| 2026-05-04 12:52 | 45.47687 | -73.71631 | 125 ft | 2 kts | 189° |
| 2026-05-04 12:52 | 45.47677 | -73.71641 | 128 ft | 1 kts | 222° |
| 2026-05-04 12:53 | 45.47676 | -73.71642 | 129 ft | 3 kts | 222° |
| 2026-05-04 12:54 | 45.47536 | -73.71824 | 125 ft | 53 kts | 223° |
| 2026-05-04 12:54 | 45.47129 | -73.72355 | 119 ft | 107 kts | 223° |
| 2026-05-04 12:54 | 45.46453 | -73.73242 | 119 ft | 156 kts | 223° |
| 2026-05-04 12:54 | 45.45641 | -73.74282 | 566 ft | 155 kts | 222° |
| 2026-05-04 12:55 | 45.44854 | -73.75317 | 1179 ft | 152 kts | 226° |
| 2026-05-04 12:55 | 45.44103 | -73.76340 | 1842 ft | 145 kts | 226° |
| 2026-05-04 12:55 | 45.43362 | -73.77348 | 2289 ft | 154 kts | 237° |
| 2026-05-04 12:55 | 45.43073 | -73.78839 | 2552 ft | 169 kts | 277° |
| 2026-05-04 12:56 | 45.43723 | -73.80317 | 2824 ft | 199 kts | 316° |
| 2026-05-04 12:56 | 45.45090 | -73.81239 | 2969 ft | 234 kts | 330° |
| 2026-05-04 12:56 | 45.46648 | -73.82222 | 3318 ft | 253 kts | 328° |
| 2026-05-04 12:56 | 45.48230 | -73.83339 | 4124 ft | 252 kts | 327° |
| 2026-05-04 12:57 | 45.49796 | -73.84445 | 4998 ft | 252 kts | 327° |
| 2026-05-04 12:57 | 45.51375 | -73.85563 | 5749 ft | 255 kts | 327° |
| 2026-05-04 12:57 | 45.53086 | -73.86431 | 6434 ft | 268 kts | 342° |
| 2026-05-04 12:57 | 45.54991 | -73.86482 | 7164 ft | 284 kts | 4° |
| 2026-05-04 12:58 | 45.56834 | -73.85319 | 7898 ft | 302 kts | 33° |
| 2026-05-04 12:58 | 45.58306 | -73.83072 | 8514 ft | 316 kts | 46° |
| 2026-05-04 12:58 | 45.59672 | -73.80607 | 9103 ft | 325 kts | 47° |
| 2026-05-04 12:58 | 45.61100 | -73.78097 | 9875 ft | 326 kts | 45° |
| 2026-05-04 12:59 | 45.62593 | -73.75641 | 10502 ft | 331 kts | 43° |
| 2026-05-04 12:59 | 45.64199 | -73.73205 | 10958 ft | 344 kts | 40° |
| 2026-05-04 12:59 | 45.65941 | -73.70738 | 11254 ft | 362 kts | 39° |
| 2026-05-04 12:59 | 45.67789 | -73.68164 | 11565 ft | 380 kts | 39° |
| 2026-05-04 13:00 | 45.69711 | -73.65452 | 11861 ft | 397 kts | 40° |
| 2026-05-04 13:00 | 45.71701 | -73.62586 | 12173 ft | 413 kts | 41° |
| 2026-05-04 13:00 | 45.73725 | -73.59610 | 12694 ft | 421 kts | 42° |
| 2026-05-04 13:00 | 45.75766 | -73.56567 | 13359 ft | 425 kts | 42° |
| 2026-05-04 13:01 | 45.77818 | -73.53488 | 13999 ft | 429 kts | 42° |
| 2026-05-04 13:01 | 45.79894 | -73.50363 | 14517 ft | 435 kts | 43° |
| 2026-05-04 13:01 | 45.81991 | -73.47206 | 15100 ft | 439 kts | 42° |
| 2026-05-04 13:01 | 45.84101 | -73.44030 | 15694 ft | 442 kts | 42° |
| 2026-05-04 13:02 | 45.86230 | -73.40826 | 16288 ft | 444 kts | 42° |
| 2026-05-04 13:02 | 45.88360 | -73.37599 | 16882 ft | 447 kts | 42° |
| 2026-05-04 13:02 | 45.90496 | -73.34338 | 17427 ft | 450 kts | 42° |
| 2026-05-04 13:02 | 45.92646 | -73.31044 | 17983 ft | 453 kts | 42° |
| 2026-05-04 13:03 | 45.94809 | -73.27724 | 18493 ft | 456 kts | 42° |
| 2026-05-04 13:03 | 45.96986 | -73.24378 | 18911 ft | 460 kts | 42° |
| 2026-05-04 13:03 | 45.99174 | -73.21010 | 19379 ft | 463 kts | 42° |
| 2026-05-04 13:03 | 46.01378 | -73.17615 | 19904 ft | 464 kts | 41° |
| 2026-05-04 13:04 | 46.03584 | -73.14214 | 20452 ft | 466 kts | 41° |
| 2026-05-04 13:04 | 46.05797 | -73.10797 | 20985 ft | 468 kts | 41° |
| 2026-05-04 13:04 | 46.08030 | -73.07350 | 21318 ft | 474 kts | 42° |
| 2026-05-04 13:04 | 46.10291 | -73.03857 | 21712 ft | 478 kts | 42° |
| 2026-05-04 13:05 | 46.12561 | -73.00342 | 22208 ft | 480 kts | 42° |
| 2026-05-04 13:05 | 46.14846 | -72.96798 | 22599 ft | 484 kts | 42° |
| 2026-05-04 13:05 | 46.17034 | -72.93078 | 23005 ft | 490 kts | 49° |
| 2026-05-04 13:05 | 46.18953 | -72.89053 | 23401 ft | 495 kts | 52° |
| 2026-05-04 13:06 | 46.20815 | -72.84850 | 23740 ft | 498 kts | 54° |
| 2026-05-04 13:06 | 46.22626 | -72.80573 | 24087 ft | 500 kts | 55° |
| 2026-05-04 13:06 | 46.24411 | -72.76256 | 24409 ft | 502 kts | 55° |
| 2026-05-04 13:06 | 46.26191 | -72.71910 | 24741 ft | 504 kts | 55° |
| 2026-05-04 13:07 | 46.27976 | -72.67545 | 25207 ft | 502 kts | 56° |
| 2026-05-04 13:07 | 46.29752 | -72.63206 | 25670 ft | 500 kts | 56° |
| 2026-05-04 13:07 | 46.31522 | -72.58893 | 26100 ft | 499 kts | 55° |
| 2026-05-04 13:07 | 46.33151 | -72.55193 | 26582 ft | 493 kts | 52° |
| 2026-05-04 13:08 | 46.34995 | -72.50992 | 27030 ft | 493 kts | 54° |
| 2026-05-04 13:08 | 46.36748 | -72.46707 | 27294 ft | 497 kts | 56° |
| 2026-05-04 13:08 | 46.38471 | -72.42367 | 27581 ft | 498 kts | 56° |
| 2026-05-04 13:08 | 46.40194 | -72.38006 | 27974 ft | 497 kts | 56° |
| 2026-05-04 13:09 | 46.41892 | -72.33737 | 28383 ft | 495 kts | 56° |
| 2026-05-04 13:09 | 46.43621 | -72.29428 | 28871 ft | 493 kts | 56° |
| 2026-05-04 13:09 | 46.45346 | -72.25158 | 29306 ft | 490 kts | 56° |
| 2026-05-04 13:09 | 46.47077 | -72.20892 | 29636 ft | 490 kts | 55° |
| 2026-05-04 13:10 | 46.48807 | -72.16637 | 29925 ft | 490 kts | 55° |
| 2026-05-04 13:10 | 46.50535 | -72.12386 | 30170 ft | 489 kts | 55° |
| 2026-05-04 13:10 | 46.52263 | -72.08131 | 30415 ft | 489 kts | 56° |
| 2026-05-04 13:10 | 46.53989 | -72.03872 | 30652 ft | 489 kts | 56° |
| 2026-05-04 13:11 | 46.55720 | -71.99621 | 30877 ft | 488 kts | 55° |
| 2026-05-04 13:11 | 46.57468 | -71.95386 | 31139 ft | 488 kts | 55° |
| 2026-05-04 13:11 | 46.59216 | -71.91177 | 31472 ft | 484 kts | 56° |
| 2026-05-04 13:11 | 46.60949 | -71.87007 | 31842 ft | 481 kts | 56° |
| 2026-05-04 13:12 | 46.62677 | -71.82848 | 32047 ft | 481 kts | 56° |
| 2026-05-04 13:12 | 46.64405 | -71.78677 | 32206 ft | 482 kts | 56° |
| 2026-05-04 13:12 | 46.66135 | -71.74494 | 32387 ft | 482 kts | 57° |
| 2026-05-04 13:12 | 46.67860 | -71.70309 | 32572 ft | 482 kts | 57° |
| 2026-05-04 13:13 | 46.69586 | -71.66114 | 32740 ft | 483 kts | 57° |
| 2026-05-04 13:13 | 46.73022 | -71.57738 | 32783 ft | 484 kts | 57° |
| 2026-05-04 13:14 | 46.76455 | -71.49342 | 32766 ft | 481 kts | 57° |
| 2026-05-04 13:14 | 46.79876 | -71.40948 | 32767 ft | 481 kts | 57° |
| 2026-05-04 13:15 | 46.83288 | -71.32555 | 32765 ft | 481 kts | 58° |
| 2026-05-04 13:15 | 46.86697 | -71.24142 | 32768 ft | 481 kts | 58° |
| 2026-05-04 13:16 | 46.90098 | -71.15725 | 32769 ft | 481 kts | 58° |
| 2026-05-04 13:16 | 46.93497 | -71.07284 | 32766 ft | 481 kts | 58° |
| 2026-05-04 13:17 | 46.96888 | -70.98840 | 32758 ft | 481 kts | 58° |
| 2026-05-04 13:17 | 47.00249 | -70.90441 | 32757 ft | 481 kts | 58° |
| 2026-05-04 13:18 | 47.03627 | -70.81975 | 32764 ft | 481 kts | 59° |
| 2026-05-04 13:18 | 47.07003 | -70.73489 | 32744 ft | 481 kts | 59° |
| 2026-05-04 13:19 | 47.10382 | -70.64968 | 32749 ft | 483 kts | 59° |
| 2026-05-04 13:19 | 47.13763 | -70.56415 | 32751 ft | 484 kts | 59° |
| 2026-05-04 13:20 | 47.17113 | -70.47913 | 32740 ft | 484 kts | 59° |
| 2026-05-04 13:20 | 47.20479 | -70.39345 | 32740 ft | 484 kts | 59° |
| 2026-05-04 13:21 | 47.23839 | -70.30764 | 32736 ft | 484 kts | 59° |
| 2026-05-04 13:21 | 47.27194 | -70.22167 | 32738 ft | 484 kts | 59° |
| 2026-05-04 13:22 | 47.30539 | -70.13568 | 32727 ft | 484 kts | 59° |
| 2026-05-04 13:22 | 47.33864 | -70.04996 | 32735 ft | 484 kts | 59° |
| 2026-05-04 13:23 | 47.37195 | -69.96381 | 32731 ft | 483 kts | 59° |
| 2026-05-04 13:23 | 47.40519 | -69.87758 | 32730 ft | 483 kts | 59° |
| 2026-05-04 13:24 | 47.43838 | -69.79120 | 32733 ft | 483 kts | 59° |
| 2026-05-04 13:24 | 47.47132 | -69.70517 | 32729 ft | 483 kts | 60° |
| 2026-05-04 13:25 | 47.52076 | -69.57552 | 32730 ft | 481 kts | 60° |
| 2026-05-04 13:25 | 47.55354 | -69.48923 | 32729 ft | 479 kts | 60° |
| 2026-05-04 13:26 | 47.58604 | -69.40338 | 32728 ft | 477 kts | 60° |
| 2026-05-04 13:26 | 47.61843 | -69.31751 | 32729 ft | 477 kts | 60° |
| 2026-05-04 13:27 | 47.65071 | -69.23169 | 32722 ft | 475 kts | 60° |
| 2026-05-04 13:27 | 47.68279 | -69.14613 | 32724 ft | 474 kts | 60° |
| 2026-05-04 13:28 | 47.71455 | -69.06117 | 32729 ft | 474 kts | 60° |
| 2026-05-04 13:28 | 47.74255 | -68.97260 | 32726 ft | 474 kts | 70° |
| 2026-05-04 13:29 | 47.76412 | -68.88007 | 32722 ft | 474 kts | 72° |
| 2026-05-04 13:29 | 47.78437 | -68.78683 | 32721 ft | 473 kts | 72° |
| 2026-05-04 13:30 | 47.80440 | -68.69359 | 32719 ft | 473 kts | 72° |
| 2026-05-04 13:30 | 47.82449 | -68.60024 | 32719 ft | 473 kts | 72° |
| 2026-05-04 13:31 | 47.84445 | -68.50753 | 32708 ft | 473 kts | 72° |
| 2026-05-04 13:31 | 47.86449 | -68.41415 | 32707 ft | 473 kts | 72° |
| 2026-05-04 13:32 | 47.88445 | -68.32071 | 32706 ft | 473 kts | 72° |
| 2026-05-04 13:32 | 47.90434 | -68.22717 | 32696 ft | 473 kts | 73° |
| 2026-05-04 13:33 | 47.92418 | -68.13343 | 32697 ft | 473 kts | 73° |
| 2026-05-04 13:33 | 47.94392 | -68.03971 | 32692 ft | 473 kts | 73° |
| 2026-05-04 13:34 | 47.96342 | -67.94666 | 32692 ft | 473 kts | 73° |
| 2026-05-04 13:34 | 47.98299 | -67.85289 | 32683 ft | 473 kts | 73° |
| 2026-05-04 13:35 | 48.00904 | -67.72735 | 32681 ft | 473 kts | 74° |
| 2026-05-04 13:36 | 48.02828 | -67.63413 | 32664 ft | 472 kts | 74° |
| 2026-05-04 13:36 | 48.04753 | -67.54042 | 32667 ft | 472 kts | 74° |
| 2026-05-04 13:37 | 48.06672 | -67.44657 | 32661 ft | 472 kts | 74° |
| 2026-05-04 13:37 | 48.08581 | -67.35275 | 32653 ft | 471 kts | 74° |
| 2026-05-04 13:38 | 48.10484 | -67.25878 | 32634 ft | 471 kts | 74° |
| 2026-05-04 13:38 | 48.12372 | -67.16512 | 32635 ft | 472 kts | 74° |
| 2026-05-04 13:39 | 48.14258 | -67.07109 | 32638 ft | 470 kts | 74° |
| 2026-05-04 13:39 | 48.16132 | -66.97726 | 32630 ft | 471 kts | 74° |
| 2026-05-04 13:40 | 48.17999 | -66.88329 | 32623 ft | 471 kts | 74° |
| 2026-05-04 13:40 | 48.19857 | -66.78930 | 32610 ft | 470 kts | 74° |
| 2026-05-04 13:41 | 48.21696 | -66.69583 | 32595 ft | 470 kts | 74° |
| 2026-05-04 13:41 | 48.23541 | -66.60161 | 32603 ft | 469 kts | 74° |
| 2026-05-04 13:42 | 48.26281 | -66.46084 | 32582 ft | 468 kts | 74° |
| 2026-05-04 13:42 | 48.28093 | -66.36713 | 32572 ft | 467 kts | 74° |
| 2026-05-04 13:43 | 48.29898 | -66.27333 | 32568 ft | 467 kts | 74° |
| 2026-05-04 13:43 | 48.31696 | -66.17945 | 32568 ft | 468 kts | 74° |
| 2026-05-04 13:44 | 48.33478 | -66.08593 | 32556 ft | 469 kts | 74° |
| 2026-05-04 13:44 | 48.35263 | -65.99180 | 32544 ft | 465 kts | 74° |
| 2026-05-04 13:45 | 48.37025 | -65.89838 | 32532 ft | 464 kts | 74° |
| 2026-05-04 13:45 | 48.38778 | -65.80503 | 32524 ft | 463 kts | 74° |
| 2026-05-04 13:46 | 48.40524 | -65.71156 | 32523 ft | 463 kts | 74° |
| 2026-05-04 13:46 | 48.42263 | -65.61798 | 32503 ft | 463 kts | 74° |
| 2026-05-04 13:47 | 48.43982 | -65.52502 | 32496 ft | 464 kts | 74° |
| 2026-05-04 13:47 | 48.45708 | -65.43122 | 32480 ft | 464 kts | 74° |
| 2026-05-04 13:48 | 48.47428 | -65.33731 | 32479 ft | 464 kts | 74° |
| 2026-05-04 13:48 | 48.49138 | -65.24343 | 32480 ft | 464 kts | 74° |
| 2026-05-04 13:49 | 48.50841 | -65.14946 | 32483 ft | 465 kts | 74° |
| 2026-05-04 13:49 | 48.52537 | -65.05535 | 32483 ft | 464 kts | 75° |
| 2026-05-04 13:50 | 48.54213 | -64.96186 | 32473 ft | 465 kts | 74° |
| 2026-05-04 13:50 | 48.55901 | -64.86730 | 32461 ft | 465 kts | 75° |
| 2026-05-04 13:51 | 48.57576 | -64.77294 | 32451 ft | 464 kts | 75° |
| 2026-05-04 13:51 | 48.59243 | -64.67851 | 32429 ft | 464 kts | 75° |
| 2026-05-04 13:52 | 48.61715 | -64.53756 | 32423 ft | 464 kts | 75° |
| 2026-05-04 13:53 | 48.63361 | -64.44308 | 32419 ft | 464 kts | 75° |
| 2026-05-04 13:53 | 48.65004 | -64.34827 | 32432 ft | 468 kts | 75° |
| 2026-05-04 13:54 | 48.67454 | -64.20593 | 32418 ft | 464 kts | 75° |
| 2026-05-04 13:55 | 48.69866 | -64.06462 | 32418 ft | 464 kts | 75° |
| 2026-05-04 13:55 | 48.72273 | -63.92247 | 32750 ft | 463 kts | 76° |
| 2026-05-04 13:56 | 48.73069 | -63.87515 | 33011 ft | 462 kts | 76° |
| 2026-05-04 13:56 | 48.73860 | -63.82807 | 33274 ft | 461 kts | 76° |
| 2026-05-04 13:56 | 48.75444 | -63.73329 | 33550 ft | 462 kts | 76° |
| 2026-05-04 13:57 | 48.76226 | -63.68638 | 33922 ft | 456 kts | 76° |
| 2026-05-04 13:57 | 48.77001 | -63.63973 | 34062 ft | 457 kts | 76° |
| 2026-05-04 13:58 | 48.79328 | -63.49886 | 34326 ft | 460 kts | 76° |
| 2026-05-04 13:58 | 48.81641 | -63.35765 | 34367 ft | 462 kts | 77° |
| 2026-05-04 13:59 | 48.83180 | -63.26303 | 34351 ft | 462 kts | 77° |
| 2026-05-04 14:00 | 48.85479 | -63.12069 | 34345 ft | 464 kts | 77° |
| 2026-05-04 14:00 | 48.87772 | -62.97752 | 34339 ft | 464 kts | 77° |
| 2026-05-04 14:01 | 48.89280 | -62.88268 | 34325 ft | 464 kts | 77° |
| 2026-05-04 14:02 | 48.91538 | -62.73958 | 34314 ft | 464 kts | 77° |
| 2026-05-04 14:02 | 48.93033 | -62.64418 | 34304 ft | 464 kts | 77° |
| 2026-05-04 14:03 | 48.94528 | -62.54821 | 34309 ft | 465 kts | 78° |
| 2026-05-04 14:03 | 48.96010 | -62.45256 | 34307 ft | 463 kts | 78° |
| 2026-05-04 14:04 | 48.98201 | -62.30999 | 34296 ft | 463 kts | 78° |
| 2026-05-04 14:04 | 48.99657 | -62.21450 | 34288 ft | 463 kts | 78° |
| 2026-05-04 14:05 | 49.01831 | -62.07095 | 34276 ft | 463 kts | 79° |
| 2026-05-04 14:06 | 49.03268 | -61.97530 | 34273 ft | 463 kts | 79° |
| 2026-05-04 14:06 | 49.04696 | -61.87975 | 34269 ft | 461 kts | 79° |
| 2026-05-04 14:07 | 49.06109 | -61.78454 | 34261 ft | 460 kts | 79° |
| 2026-05-04 14:07 | 49.07517 | -61.68914 | 34259 ft | 460 kts | 79° |
| 2026-05-04 14:08 | 49.08905 | -61.59443 | 34250 ft | 460 kts | 79° |
| 2026-05-04 14:08 | 49.10297 | -61.49892 | 34252 ft | 460 kts | 79° |
| 2026-05-04 14:09 | 49.12377 | -61.35509 | 34237 ft | 463 kts | 79° |
| 2026-05-04 14:10 | 49.14431 | -61.21173 | 34232 ft | 461 kts | 79° |
| 2026-05-04 14:10 | 49.15792 | -61.11597 | 34233 ft | 461 kts | 79° |
| 2026-05-04 14:11 | 49.17146 | -61.02006 | 34228 ft | 461 kts | 79° |
| 2026-05-04 14:11 | 49.19161 | -60.87618 | 34216 ft | 462 kts | 79° |
| 2026-05-04 14:12 | 49.20490 | -60.78053 | 34215 ft | 463 kts | 80° |
| 2026-05-04 14:13 | 49.22476 | -60.63649 | 34206 ft | 460 kts | 80° |
| 2026-05-04 14:13 | 49.23786 | -60.54061 | 34206 ft | 460 kts | 80° |
| 2026-05-04 14:14 | 49.25087 | -60.44482 | 34200 ft | 460 kts | 80° |
| 2026-05-04 14:14 | 49.27025 | -60.30088 | 34198 ft | 460 kts | 80° |
| 2026-05-04 14:15 | 49.29577 | -60.10919 | 34191 ft | 460 kts | 81° |
| 2026-05-04 14:16 | 49.31474 | -59.96495 | 34183 ft | 460 kts | 81° |
| 2026-05-04 14:17 | 49.33350 | -59.82081 | 34183 ft | 460 kts | 81° |
| 2026-05-04 14:18 | 49.35202 | -59.67710 | 34167 ft | 460 kts | 81° |
| 2026-05-04 14:19 | 49.37660 | -59.48400 | 34169 ft | 461 kts | 81° |
| 2026-05-04 14:19 | 49.38879 | -59.38723 | 34166 ft | 462 kts | 81° |
| 2026-05-04 14:20 | 49.40090 | -59.29038 | 34160 ft | 462 kts | 81° |
| 2026-05-04 14:20 | 49.41292 | -59.19359 | 34161 ft | 462 kts | 81° |
| 2026-05-04 14:21 | 49.43080 | -59.04820 | 34148 ft | 462 kts | 82° |
| 2026-05-04 14:21 | 49.44268 | -58.95076 | 34146 ft | 465 kts | 82° |
| 2026-05-04 14:22 | 49.45450 | -58.85309 | 34157 ft | 465 kts | 82° |
| 2026-05-04 14:22 | 49.46426 | -58.77187 | 34149 ft | 465 kts | 82° |
| 2026-05-04 14:23 | 49.48361 | -58.60941 | 34150 ft | 464 kts | 82° |
| 2026-05-04 14:24 | 49.49327 | -58.52748 | 34146 ft | 464 kts | 82° |
| 2026-05-04 14:24 | 49.50465 | -58.43034 | 34145 ft | 465 kts | 83° |
| 2026-05-04 14:25 | 49.51604 | -58.33232 | 34126 ft | 465 kts | 83° |
| 2026-05-04 14:25 | 49.53717 | -58.18644 | 34147 ft | 467 kts | 78° |
| 2026-05-04 14:26 | 49.55469 | -58.09023 | 34145 ft | 467 kts | 77° |
| 2026-05-04 14:26 | 49.57257 | -57.99396 | 34152 ft | 467 kts | 77° |
| 2026-05-04 14:27 | 49.59033 | -57.89772 | 34154 ft | 467 kts | 77° |
| 2026-05-04 14:27 | 49.60796 | -57.80131 | 34147 ft | 467 kts | 78° |
| 2026-05-04 14:28 | 49.62549 | -57.70472 | 34180 ft | 467 kts | 78° |
| 2026-05-04 14:28 | 49.64279 | -57.60885 | 34180 ft | 467 kts | 78° |
| 2026-05-04 14:29 | 49.67738 | -57.41565 | 34193 ft | 467 kts | 78° |
| 2026-05-04 14:30 | 49.69459 | -57.31874 | 34205 ft | 467 kts | 79° |
| 2026-05-04 14:31 | 49.72021 | -57.17356 | 34203 ft | 466 kts | 79° |
| 2026-05-04 14:32 | 49.75399 | -56.98021 | 34210 ft | 469 kts | 79° |
| 2026-05-04 14:32 | 49.77090 | -56.88265 | 34219 ft | 469 kts | 79° |
| 2026-05-04 14:33 | 49.78774 | -56.78498 | 34216 ft | 469 kts | 80° |
| 2026-05-04 14:33 | 49.80449 | -56.68731 | 34225 ft | 469 kts | 80° |
| 2026-05-04 14:34 | 49.82101 | -56.59038 | 34226 ft | 468 kts | 80° |
| 2026-05-04 14:34 | 49.83752 | -56.49293 | 34231 ft | 468 kts | 80° |
| 2026-05-04 14:35 | 49.85397 | -56.39535 | 34232 ft | 468 kts | 81° |
| 2026-05-04 14:35 | 49.87033 | -56.29772 | 34239 ft | 468 kts | 81° |
| 2026-05-04 14:36 | 49.88661 | -56.20001 | 34240 ft | 468 kts | 81° |
| 2026-05-04 14:36 | 49.90279 | -56.10238 | 34241 ft | 466 kts | 81° |
| 2026-05-04 14:37 | 49.91884 | -56.00494 | 34250 ft | 466 kts | 81° |
| 2026-05-04 14:37 | 49.93479 | -55.90752 | 34250 ft | 466 kts | 81° |
| 2026-05-04 14:38 | 49.95058 | -55.81056 | 34264 ft | 466 kts | 81° |
| 2026-05-04 14:38 | 49.96637 | -55.71297 | 34265 ft | 466 kts | 82° |
| 2026-05-04 14:39 | 49.98209 | -55.61536 | 34257 ft | 465 kts | 82° |
| 2026-05-04 14:39 | 49.99769 | -55.51790 | 34274 ft | 464 kts | 82° |
| 2026-05-04 14:40 | 50.02090 | -55.37176 | 34281 ft | 464 kts | 82° |
| 2026-05-04 14:40 | 50.03616 | -55.27492 | 34292 ft | 464 kts | 82° |
| 2026-05-04 14:41 | 50.05144 | -55.17746 | 34298 ft | 463 kts | 82° |
| 2026-05-04 14:42 | 50.08171 | -54.98264 | 34291 ft | 461 kts | 83° |
| 2026-05-04 14:42 | 50.09666 | -54.88554 | 34311 ft | 461 kts | 83° |
| 2026-05-04 14:43 | 50.11142 | -54.78906 | 34312 ft | 461 kts | 83° |
| 2026-05-04 14:43 | 50.12619 | -54.69187 | 34325 ft | 461 kts | 83° |
| 2026-05-04 14:44 | 50.14087 | -54.59473 | 34326 ft | 461 kts | 83° |
| 2026-05-04 14:44 | 50.15547 | -54.49756 | 34329 ft | 459 kts | 84° |
| 2026-05-04 14:45 | 50.16995 | -54.40068 | 34338 ft | 458 kts | 84° |
| 2026-05-04 14:45 | 50.18431 | -54.30383 | 34352 ft | 458 kts | 84° |
| 2026-05-04 14:46 | 50.19860 | -54.20696 | 34348 ft | 457 kts | 85° |
| 2026-05-04 14:46 | 50.21264 | -54.11112 | 34359 ft | 456 kts | 85° |
| 2026-05-04 14:47 | 50.22670 | -54.01452 | 34366 ft | 456 kts | 85° |
| 2026-05-04 14:47 | 50.24067 | -53.91798 | 34367 ft | 456 kts | 85° |
| 2026-05-04 14:48 | 50.25458 | -53.82125 | 34387 ft | 456 kts | 85° |
| 2026-05-04 14:48 | 50.26839 | -53.72459 | 34387 ft | 456 kts | 85° |
| 2026-05-04 14:49 | 50.28214 | -53.62775 | 34387 ft | 456 kts | 85° |
| 2026-05-04 14:49 | 50.29573 | -53.53144 | 34384 ft | 455 kts | 86° |
| 2026-05-04 14:50 | 50.30928 | -53.43481 | 34375 ft | 454 kts | 86° |
| 2026-05-04 14:50 | 50.32268 | -53.33882 | 34408 ft | 449 kts | 87° |
| 2026-05-04 14:51 | 50.33590 | -53.24328 | 34417 ft | 449 kts | 87° |
| 2026-05-04 14:51 | 50.34900 | -53.14781 | 34423 ft | 448 kts | 87° |
| 2026-05-04 14:52 | 50.36202 | -53.05233 | 34423 ft | 448 kts | 87° |
| 2026-05-04 14:52 | 50.37499 | -52.95671 | 34442 ft | 448 kts | 87° |
| 2026-05-04 14:53 | 50.38788 | -52.86111 | 34412 ft | 448 kts | 88° |
| 2026-05-04 14:53 | 50.40057 | -52.76651 | 34443 ft | 445 kts | 89° |
| 2026-05-04 14:54 | 50.41322 | -52.67133 | 34635 ft | 446 kts | 88° |
| 2026-05-04 14:54 | 50.41952 | -52.62370 | 34809 ft | 445 kts | 88° |
| 2026-05-04 14:54 | 50.42581 | -52.57594 | 34957 ft | 446 kts | 88° |
| 2026-05-04 14:55 | 50.43207 | -52.52830 | 35103 ft | 446 kts | 88° |
| 2026-05-04 14:55 | 50.43823 | -52.48122 | 35231 ft | 447 kts | 88° |
| 2026-05-04 14:55 | 50.44447 | -52.43337 | 35361 ft | 447 kts | 88° |
| 2026-05-04 14:55 | 50.45070 | -52.38548 | 35466 ft | 448 kts | 87° |
| 2026-05-04 14:56 | 50.46312 | -52.28959 | 35460 ft | 448 kts | 88° |
| 2026-05-04 14:56 | 50.47543 | -52.19412 | 35486 ft | 445 kts | 88° |
| 2026-05-04 14:57 | 50.48759 | -52.09893 | 35478 ft | 445 kts | 88° |
| 2026-05-04 14:57 | 50.50103 | -52.00385 | 35497 ft | 452 kts | 81° |
| 2026-05-04 14:58 | 50.52306 | -51.91042 | 35496 ft | 458 kts | 77° |
| 2026-05-04 14:58 | 50.54712 | -51.81743 | 35514 ft | 459 kts | 77° |
| 2026-05-04 14:59 | 50.57146 | -51.72463 | 35521 ft | 458 kts | 77° |
| 2026-05-04 15:00 | 50.60738 | -51.58591 | 35527 ft | 458 kts | 77° |
| 2026-05-04 15:00 | 50.63118 | -51.49295 | 35534 ft | 457 kts | 77° |
| 2026-05-04 15:01 | 50.66673 | -51.35330 | 35528 ft | 457 kts | 78° |
| 2026-05-04 15:01 | 50.69031 | -51.26027 | 35548 ft | 456 kts | 78° |
| 2026-05-04 15:02 | 50.71366 | -51.16773 | 35556 ft | 456 kts | 78° |
| 2026-05-04 15:02 | 50.73708 | -51.07455 | 35547 ft | 456 kts | 78° |
| 2026-05-04 15:03 | 50.76048 | -50.98096 | 35560 ft | 458 kts | 78° |
| 2026-05-04 15:03 | 50.78388 | -50.88707 | 35524 ft | 459 kts | 78° |
| 2026-05-04 15:04 | 50.80719 | -50.79316 | 35580 ft | 459 kts | 78° |
| 2026-05-04 15:04 | 50.83044 | -50.69911 | 35578 ft | 459 kts | 78° |
| 2026-05-04 15:05 | 50.85345 | -50.60562 | 35587 ft | 459 kts | 79° |
| 2026-05-04 15:05 | 50.87653 | -50.51144 | 35586 ft | 459 kts | 79° |
| 2026-05-04 15:06 | 50.89955 | -50.41710 | 35580 ft | 458 kts | 79° |
| 2026-05-04 15:07 | 50.93382 | -50.27590 | 35603 ft | 457 kts | 79° |
| 2026-05-04 15:07 | 50.95651 | -50.18185 | 35608 ft | 457 kts | 79° |
| 2026-05-04 15:08 | 50.97905 | -50.08806 | 35610 ft | 457 kts | 79° |
| 2026-05-04 15:08 | 51.00170 | -49.99359 | 35628 ft | 460 kts | 79° |
| 2026-05-04 15:09 | 51.02529 | -49.89883 | 35627 ft | 463 kts | 78° |
| 2026-05-04 15:09 | 51.04935 | -49.80375 | 35633 ft | 463 kts | 78° |
| 2026-05-04 15:10 | 51.08521 | -49.66101 | 35645 ft | 463 kts | 78° |
| 2026-05-04 15:11 | 51.12059 | -49.51865 | 35607 ft | 463 kts | 78° |
| 2026-05-04 15:11 | 51.14415 | -49.42318 | 35655 ft | 464 kts | 78° |
| 2026-05-04 15:12 | 51.16389 | -49.34287 | 35655 ft | 464 kts | 78° |
| 2026-05-04 15:12 | 51.18726 | -49.24754 | 35661 ft | 465 kts | 78° |
| 2026-05-04 15:13 | 51.21070 | -49.15148 | 35676 ft | 464 kts | 78° |
| 2026-05-04 15:13 | 51.23405 | -49.05538 | 35675 ft | 464 kts | 78° |
| 2026-05-04 15:14 | 51.25730 | -48.95923 | 35664 ft | 464 kts | 78° |
| 2026-05-04 15:14 | 51.28057 | -48.86249 | 35687 ft | 468 kts | 78° |
| 2026-05-04 15:15 | 51.30383 | -48.76544 | 35691 ft | 468 kts | 78° |
| 2026-05-04 15:15 | 51.32708 | -48.66810 | 35687 ft | 467 kts | 78° |
| 2026-05-04 15:16 | 51.36160 | -48.52257 | 35694 ft | 472 kts | 79° |
| 2026-05-04 15:17 | 51.39660 | -48.37396 | 35697 ft | 476 kts | 79° |
| 2026-05-04 15:17 | 51.43173 | -48.22390 | 35714 ft | 482 kts | 79° |
| 2026-05-04 15:18 | 51.45522 | -48.12306 | 35685 ft | 482 kts | 78° |
| 2026-05-04 15:19 | 51.48972 | -47.97469 | 35710 ft | 461 kts | 79° |
| 2026-05-04 15:19 | 51.52216 | -47.83418 | 35712 ft | 436 kts | 79° |
| 2026-05-04 15:20 | 51.53016 | -47.79028 | 36071 ft | 413 kts | 86° |
| 2026-05-04 15:20 | 51.53802 | -47.74689 | 36501 ft | 409 kts | 81° |
| 2026-05-04 15:20 | 51.55875 | -47.65992 | 36235 ft | 426 kts | 77° |
| 2026-05-04 15:21 | 51.56624 | -47.62997 | 36062 ft | 433 kts | 77° |
| 2026-05-04 15:21 | 51.57748 | -47.58436 | 35817 ft | 442 kts | 77° |
| 2026-05-04 15:22 | 51.61043 | -47.44366 | 35766 ft | 453 kts | 78° |
| 2026-05-04 15:22 | 51.64292 | -47.29868 | 35766 ft | 465 kts | 78° |
| 2026-05-04 15:23 | 51.65341 | -47.25148 | 35777 ft | 469 kts | 78° |
| 2026-05-04 15:23 | 51.67557 | -47.15156 | 35767 ft | 477 kts | 77° |
| 2026-05-04 15:24 | 51.72061 | -46.94749 | 35793 ft | 492 kts | 77° |
| 2026-05-04 15:25 | 51.74358 | -46.84272 | 35798 ft | 496 kts | 77° |
| 2026-05-04 15:26 | 51.77393 | -46.70367 | 35803 ft | 495 kts | 77° |
| 2026-05-04 15:26 | 51.80825 | -46.54475 | 35981 ft | 501 kts | 77° |
| 2026-05-04 15:27 | 51.81967 | -46.49169 | 36164 ft | 501 kts | 77° |
| 2026-05-04 15:27 | 51.84233 | -46.38592 | 36445 ft | 501 kts | 77° |
| 2026-05-04 15:28 | 51.86505 | -46.27929 | 36708 ft | 501 kts | 77° |
| 2026-05-04 15:28 | 51.87636 | -46.22601 | 36813 ft | 501 kts | 77° |
| 2026-05-04 15:29 | 51.91004 | -46.06655 | 36854 ft | 498 kts | 77° |
| 2026-05-04 15:30 | 51.98746 | -45.69479 | 36883 ft | 498 kts | 76° |
| 2026-05-04 15:31 | 52.02051 | -45.53398 | 36899 ft | 501 kts | 75° |
| 2026-05-04 15:32 | 52.07505 | -45.26583 | 36919 ft | 501 kts | 76° |
| 2026-05-04 15:34 | 52.12911 | -44.99630 | 36931 ft | 501 kts | 75° |
| 2026-05-04 15:34 | 52.16116 | -44.83471 | 36948 ft | 501 kts | 75° |
| 2026-05-04 15:35 | 52.19306 | -44.67252 | 36953 ft | 501 kts | 74° |
| 2026-05-04 15:36 | 52.22480 | -44.50979 | 36978 ft | 501 kts | 74° |
| 2026-05-04 15:36 | 52.24569 | -44.40195 | 36974 ft | 501 kts | 74° |
| 2026-05-04 15:37 | 52.26661 | -44.29331 | 36982 ft | 501 kts | 74° |
| 2026-05-04 15:37 | 52.27953 | -44.22593 | 36982 ft | 501 kts | 74° |
| 2026-05-04 15:38 | 52.29918 | -44.12298 | 37002 ft | 501 kts | 74° |
| 2026-05-04 15:39 | 52.31974 | -44.01464 | 37002 ft | 501 kts | 74° |
| 2026-05-04 15:40 | 52.35052 | -43.85123 | 36999 ft | 501 kts | 74° |
| 2026-05-04 15:40 | 52.37092 | -43.74217 | 37008 ft | 501 kts | 73° |
| 2026-05-04 15:41 | 52.39122 | -43.63299 | 37017 ft | 500 kts | 73° |
| 2026-05-04 15:41 | 52.41142 | -43.52375 | 37033 ft | 500 kts | 73° |
| 2026-05-04 15:42 | 52.43078 | -43.41838 | 37031 ft | 500 kts | 73° |
| 2026-05-04 15:42 | 52.45060 | -43.30990 | 37040 ft | 500 kts | 74° |
| 2026-05-04 15:43 | 52.47048 | -43.20044 | 37042 ft | 499 kts | 73° |
| 2026-05-04 15:43 | 52.49021 | -43.09115 | 37061 ft | 499 kts | 72° |
| 2026-05-04 15:44 | 52.50983 | -42.98183 | 37065 ft | 499 kts | 73° |
| 2026-05-04 15:44 | 52.52934 | -42.87248 | 37073 ft | 499 kts | 73° |
| 2026-05-04 15:45 | 52.54862 | -42.76372 | 37068 ft | 499 kts | 73° |
| 2026-05-04 15:45 | 52.56798 | -42.65391 | 37086 ft | 500 kts | 72° |
| 2026-05-04 15:46 | 52.58722 | -42.54408 | 37098 ft | 500 kts | 72° |
| 2026-05-04 15:46 | 52.60638 | -42.43399 | 37099 ft | 500 kts | 72° |
| 2026-05-04 15:47 | 52.62542 | -42.32391 | 37107 ft | 500 kts | 73° |
| 2026-05-04 15:47 | 52.64428 | -42.21423 | 37120 ft | 500 kts | 72° |
| 2026-05-04 15:48 | 52.66309 | -42.10409 | 37129 ft | 499 kts | 72° |
| 2026-05-04 15:48 | 52.69114 | -41.93861 | 37130 ft | 499 kts | 72° |
| 2026-05-04 15:49 | 52.70968 | -41.82837 | 37135 ft | 499 kts | 72° |
| 2026-05-04 15:49 | 52.72811 | -41.71811 | 37168 ft | 499 kts | 72° |
| 2026-05-04 15:50 | 52.74642 | -41.60782 | 37149 ft | 498 kts | 72° |
| 2026-05-04 15:50 | 52.76449 | -41.49825 | 37164 ft | 498 kts | 72° |
| 2026-05-04 15:51 | 52.78258 | -41.38794 | 37164 ft | 498 kts | 72° |
| 2026-05-04 15:51 | 52.80058 | -41.27739 | 37167 ft | 498 kts | 72° |
| 2026-05-04 15:52 | 52.81846 | -41.16686 | 37185 ft | 498 kts | 71° |
| 2026-05-04 15:52 | 52.83624 | -41.05622 | 37187 ft | 498 kts | 71° |
| 2026-05-04 15:53 | 52.85393 | -40.94543 | 37185 ft | 498 kts | 72° |
| 2026-05-04 15:53 | 52.87151 | -40.83462 | 37197 ft | 498 kts | 72° |
| 2026-05-04 15:54 | 52.88899 | -40.72361 | 37196 ft | 498 kts | 71° |
| 2026-05-04 15:54 | 52.90623 | -40.61339 | 37215 ft | 495 kts | 71° |
| 2026-05-04 15:55 | 52.92336 | -40.50314 | 37213 ft | 494 kts | 71° |
| 2026-05-04 15:55 | 52.94037 | -40.39298 | 37220 ft | 493 kts | 71° |
| 2026-05-04 15:56 | 52.95732 | -40.28253 | 37229 ft | 493 kts | 71° |
| 2026-05-04 15:56 | 52.97403 | -40.17283 | 37255 ft | 493 kts | 71° |
| 2026-05-04 15:57 | 52.99072 | -40.06241 | 37238 ft | 493 kts | 71° |
| 2026-05-04 15:57 | 53.01078 | -39.96007 | 37239 ft | 486 kts | 63° |
| 2026-05-04 15:58 | 53.03151 | -39.87433 | 37244 ft | 486 kts | 62° |
| 2026-05-04 15:58 | 53.05770 | -39.76997 | 37244 ft | 485 kts | 61° |
| 2026-05-04 15:59 | 53.08379 | -39.66632 | 37262 ft | 486 kts | 62° |
| 2026-05-04 15:59 | 53.11398 | -39.54530 | 37258 ft | 488 kts | 62° |
| 2026-05-04 16:00 | 53.13552 | -39.45821 | 37266 ft | 488 kts | 62° |
| 2026-05-04 16:00 | 53.16134 | -39.35333 | 37265 ft | 488 kts | 62° |
| 2026-05-04 16:01 | 53.18701 | -39.24849 | 37274 ft | 488 kts | 62° |
| 2026-05-04 16:01 | 53.21262 | -39.14349 | 37274 ft | 488 kts | 62° |
| 2026-05-04 16:02 | 53.23812 | -39.03840 | 37278 ft | 488 kts | 62° |
| 2026-05-04 16:03 | 53.27608 | -38.88106 | 37279 ft | 488 kts | 62° |
| 2026-05-04 16:03 | 53.30138 | -38.77558 | 37302 ft | 488 kts | 62° |
| 2026-05-04 16:04 | 53.32645 | -38.67043 | 37290 ft | 485 kts | 62° |
| 2026-05-04 16:04 | 53.36355 | -38.51401 | 37293 ft | 483 kts | 62° |
| 2026-05-04 16:05 | 53.38824 | -38.40932 | 37294 ft | 483 kts | 62° |
| 2026-05-04 16:06 | 53.42501 | -38.25242 | 37304 ft | 483 kts | 62° |
| 2026-05-04 16:07 | 53.47375 | -38.04257 | 37304 ft | 481 kts | 62° |
| 2026-05-04 16:08 | 53.52190 | -37.83331 | 37312 ft | 481 kts | 62° |
| 2026-05-04 16:09 | 53.58159 | -37.57094 | 37325 ft | 479 kts | 62° |
| 2026-05-04 16:10 | 53.62884 | -37.36094 | 37329 ft | 479 kts | 63° |
| 2026-05-04 16:11 | 53.67553 | -37.15125 | 37331 ft | 478 kts | 63° |
| 2026-05-04 16:12 | 53.74497 | -36.83554 | 37368 ft | 478 kts | 64° |
| 2026-05-04 16:13 | 53.79044 | -36.62604 | 37347 ft | 475 kts | 64° |
| 2026-05-04 16:14 | 53.83565 | -36.41576 | 37357 ft | 475 kts | 65° |
| 2026-05-04 16:16 | 53.89165 | -36.15214 | 37351 ft | 475 kts | 65° |
| 2026-05-04 16:17 | 53.94696 | -35.88834 | 37360 ft | 475 kts | 66° |
| 2026-05-04 16:18 | 53.99086 | -35.67647 | 37362 ft | 475 kts | 66° |
| 2026-05-04 16:19 | 54.04522 | -35.41097 | 37365 ft | 475 kts | 67° |
| 2026-05-04 16:20 | 54.09895 | -35.14497 | 37365 ft | 474 kts | 68° |
| 2026-05-04 16:22 | 54.15191 | -34.87925 | 37386 ft | 475 kts | 68° |
| 2026-05-04 16:23 | 54.21473 | -34.55922 | 37371 ft | 473 kts | 69° |
| 2026-05-04 16:25 | 54.27649 | -34.23932 | 37371 ft | 473 kts | 69° |
| 2026-05-04 16:26 | 54.34755 | -33.86450 | 37385 ft | 473 kts | 70° |
| 2026-05-04 16:28 | 54.39768 | -33.59549 | 37375 ft | 473 kts | 70° |
| 2026-05-04 16:29 | 54.46671 | -33.21862 | 37374 ft | 473 kts | 70° |
| 2026-05-04 16:31 | 54.51543 | -32.94787 | 37380 ft | 473 kts | 71° |
| 2026-05-04 16:32 | 54.57309 | -32.62219 | 37378 ft | 474 kts | 71° |
| 2026-05-04 16:33 | 54.61091 | -32.40532 | 37377 ft | 474 kts | 71° |
| 2026-05-04 16:34 | 54.63912 | -32.24183 | 37374 ft | 473 kts | 71° |
| 2026-05-04 16:35 | 54.69488 | -31.91410 | 37369 ft | 474 kts | 72° |
| 2026-05-04 16:36 | 54.72232 | -31.75062 | 37373 ft | 474 kts | 72° |
| 2026-05-04 16:37 | 54.74966 | -31.58612 | 37373 ft | 474 kts | 72° |
| 2026-05-04 16:38 | 54.78575 | -31.36657 | 37371 ft | 474 kts | 72° |
| 2026-05-04 16:39 | 54.83033 | -31.09141 | 37375 ft | 473 kts | 73° |
| 2026-05-04 16:40 | 54.86555 | -30.87084 | 37363 ft | 474 kts | 73° |
| 2026-05-04 16:41 | 54.90894 | -30.59507 | 37362 ft | 474 kts | 73° |
| 2026-05-04 16:43 | 54.95182 | -30.31787 | 37358 ft | 475 kts | 73° |
| 2026-05-04 16:43 | 54.97718 | -30.15177 | 37357 ft | 475 kts | 74° |
| 2026-05-04 16:45 | 55.02646 | -29.81711 | 37357 ft | 475 kts | 75° |
| 2026-05-04 16:46 | 55.06320 | -29.55619 | 37349 ft | 475 kts | 75° |
| 2026-05-04 16:47 | 55.09438 | -29.33200 | 37353 ft | 475 kts | 75° |
| 2026-05-04 16:48 | 55.12508 | -29.10798 | 37343 ft | 475 kts | 76° |
| 2026-05-04 16:49 | 55.15547 | -28.88288 | 37343 ft | 475 kts | 76° |
| 2026-05-04 16:50 | 55.18535 | -28.65811 | 37353 ft | 475 kts | 76° |
| 2026-05-04 16:51 | 55.20745 | -28.48958 | 37344 ft | 475 kts | 76° |
| 2026-05-04 16:52 | 55.23668 | -28.26366 | 37345 ft | 475 kts | 76° |
| 2026-05-04 16:53 | 55.25838 | -28.09364 | 37343 ft | 475 kts | 77° |
| 2026-05-04 16:54 | 55.28689 | -27.86703 | 37340 ft | 476 kts | 77° |
| 2026-05-04 16:55 | 55.32881 | -27.52694 | 37320 ft | 476 kts | 77° |
| 2026-05-04 16:56 | 55.36312 | -27.24224 | 37332 ft | 476 kts | 77° |
| 2026-05-04 16:57 | 55.38330 | -27.07190 | 37334 ft | 476 kts | 78° |
| 2026-05-04 16:58 | 55.40995 | -26.84354 | 37328 ft | 476 kts | 78° |
| 2026-05-04 17:00 | 55.44914 | -26.50034 | 37326 ft | 476 kts | 78° |
| 2026-05-04 17:01 | 55.48106 | -26.21380 | 37324 ft | 476 kts | 78° |
| 2026-05-04 17:02 | 55.50605 | -25.98485 | 37306 ft | 476 kts | 78° |
| 2026-05-04 17:03 | 55.52455 | -25.81265 | 37314 ft | 476 kts | 78° |
| 2026-05-04 17:03 | 55.54280 | -25.64027 | 37306 ft | 476 kts | 79° |
| 2026-05-04 17:04 | 55.56671 | -25.41073 | 37303 ft | 476 kts | 79° |
| 2026-05-04 17:05 | 55.59023 | -25.18043 | 37306 ft | 476 kts | 79° |
| 2026-05-04 17:06 | 55.60761 | -25.00737 | 37306 ft | 476 kts | 79° |
| 2026-05-04 17:07 | 55.62282 | -24.85373 | 37294 ft | 476 kts | 79° |
| 2026-05-04 17:07 | 55.63601 | -24.71872 | 37306 ft | 476 kts | 79° |
| 2026-05-04 17:08 | 55.65266 | -24.54603 | 37286 ft | 476 kts | 79° |
| 2026-05-04 17:09 | 55.66368 | -24.43032 | 37287 ft | 476 kts | 79° |
| 2026-05-04 17:09 | 55.67459 | -24.31445 | 37300 ft | 476 kts | 79° |
| 2026-05-04 17:10 | 55.70135 | -24.02502 | 37291 ft | 475 kts | 80° |
| 2026-05-04 17:11 | 55.71179 | -23.90991 | 37286 ft | 475 kts | 80° |
| 2026-05-04 17:12 | 55.72735 | -23.73606 | 37281 ft | 475 kts | 80° |
| 2026-05-04 17:13 | 55.75274 | -23.44594 | 37280 ft | 475 kts | 80° |
| 2026-05-04 17:14 | 55.77249 | -23.21440 | 37280 ft | 476 kts | 81° |
| 2026-05-04 17:15 | 55.78708 | -23.03979 | 37275 ft | 475 kts | 81° |
| 2026-05-04 17:16 | 55.80604 | -22.80808 | 37276 ft | 475 kts | 81° |
| 2026-05-04 17:17 | 55.82462 | -22.57561 | 37270 ft | 475 kts | 81° |
| 2026-05-04 17:18 | 55.84273 | -22.34315 | 37268 ft | 473 kts | 81° |
| 2026-05-04 17:19 | 55.86033 | -22.11144 | 37268 ft | 473 kts | 81° |
| 2026-05-04 17:20 | 55.87753 | -21.87912 | 37263 ft | 473 kts | 81° |
| 2026-05-04 17:20 | 55.89013 | -21.70490 | 37257 ft | 472 kts | 82° |
| 2026-05-04 17:21 | 55.90654 | -21.47262 | 37254 ft | 472 kts | 82° |
| 2026-05-04 17:22 | 55.91459 | -21.35630 | 37263 ft | 472 kts | 82° |
| 2026-05-04 17:23 | 55.93031 | -21.12408 | 37252 ft | 471 kts | 82° |
| 2026-05-04 17:24 | 55.94180 | -20.94997 | 37248 ft | 471 kts | 82° |
| 2026-05-04 17:25 | 55.95670 | -20.71839 | 37244 ft | 471 kts | 82° |
| 2026-05-04 17:26 | 55.97121 | -20.48593 | 37244 ft | 471 kts | 83° |
| 2026-05-04 17:27 | 55.98869 | -20.19588 | 37243 ft | 471 kts | 83° |
| 2026-05-04 17:28 | 56.00148 | -19.96299 | 37238 ft | 471 kts | 85° |
| 2026-05-04 17:29 | 56.00735 | -19.61230 | 37235 ft | 471 kts | 87° |
| 2026-05-04 17:31 | 56.01196 | -19.31943 | 37229 ft | 472 kts | 87° |
| 2026-05-04 17:32 | 56.01595 | -19.02651 | 37235 ft | 472 kts | 87° |
| 2026-05-04 17:33 | 56.01861 | -18.79263 | 37219 ft | 472 kts | 88° |
| 2026-05-04 17:34 | 56.02067 | -18.57777 | 37204 ft | 472 kts | 88° |
| 2026-05-04 17:35 | 56.02288 | -18.28508 | 37217 ft | 471 kts | 88° |
| 2026-05-04 17:36 | 56.02356 | -18.16798 | 37214 ft | 470 kts | 88° |
| 2026-05-04 17:36 | 56.02414 | -18.05103 | 37214 ft | 470 kts | 88° |
| 2026-05-04 17:37 | 56.02461 | -17.93412 | 37208 ft | 470 kts | 88° |
| 2026-05-04 17:37 | 56.02496 | -17.81722 | 37209 ft | 470 kts | 88° |
| 2026-05-04 17:38 | 56.02521 | -17.70029 | 37204 ft | 470 kts | 89° |
| 2026-05-04 17:38 | 56.02534 | -17.58409 | 37206 ft | 470 kts | 89° |
| 2026-05-04 17:39 | 56.02533 | -17.40868 | 37206 ft | 470 kts | 89° |
| 2026-05-04 17:39 | 56.02519 | -17.29184 | 37205 ft | 470 kts | 89° |
| 2026-05-04 17:40 | 56.02494 | -17.17472 | 37208 ft | 470 kts | 89° |
| 2026-05-04 17:40 | 56.02458 | -17.05783 | 37209 ft | 470 kts | 89° |
| 2026-05-04 17:41 | 56.02410 | -16.94099 | 37206 ft | 470 kts | 89° |
| 2026-05-04 17:41 | 56.02352 | -16.82486 | 37207 ft | 470 kts | 89° |
| 2026-05-04 17:42 | 56.02283 | -16.70792 | 37202 ft | 470 kts | 89° |
| 2026-05-04 17:42 | 56.02203 | -16.59114 | 37203 ft | 470 kts | 90° |
| 2026-05-04 17:43 | 56.02111 | -16.47406 | 37200 ft | 470 kts | 90° |
| 2026-05-04 17:43 | 56.02008 | -16.35718 | 37189 ft | 470 kts | 90° |
| 2026-05-04 17:44 | 56.01895 | -16.24028 | 37194 ft | 469 kts | 90° |
| 2026-05-04 17:44 | 56.01770 | -16.12368 | 37195 ft | 469 kts | 90° |
| 2026-05-04 17:45 | 56.01636 | -16.00782 | 37192 ft | 469 kts | 90° |
| 2026-05-04 17:45 | 56.01489 | -15.89107 | 37191 ft | 470 kts | 90° |
| 2026-05-04 17:46 | 56.01332 | -15.77436 | 37189 ft | 470 kts | 90° |
| 2026-05-04 17:46 | 56.01163 | -15.65749 | 37190 ft | 470 kts | 91° |
| 2026-05-04 17:47 | 56.00984 | -15.54072 | 37181 ft | 470 kts | 91° |
| 2026-05-04 17:47 | 56.00793 | -15.42396 | 37181 ft | 470 kts | 91° |
| 2026-05-04 17:48 | 56.00593 | -15.30797 | 37181 ft | 470 kts | 91° |
| 2026-05-04 17:48 | 56.00380 | -15.19118 | 37181 ft | 470 kts | 91° |
| 2026-05-04 17:49 | 56.00156 | -15.07424 | 37178 ft | 470 kts | 91° |
| 2026-05-04 17:49 | 55.99978 | -14.95727 | 37178 ft | 470 kts | 90° |
| 2026-05-04 17:50 | 56.00002 | -14.84121 | 37171 ft | 470 kts | 89° |
| 2026-05-04 17:50 | 56.00067 | -14.72420 | 37170 ft | 471 kts | 89° |
| 2026-05-04 17:51 | 56.00103 | -14.60710 | 37165 ft | 471 kts | 89° |
| 2026-05-04 17:51 | 56.00112 | -14.48987 | 37165 ft | 471 kts | 89° |
| 2026-05-04 17:52 | 56.00105 | -14.37264 | 37146 ft | 471 kts | 89° |
| 2026-05-04 17:52 | 56.00086 | -14.25631 | 37163 ft | 470 kts | 90° |
| 2026-05-04 17:53 | 56.00057 | -14.13944 | 37156 ft | 470 kts | 90° |
| 2026-05-04 17:53 | 56.00018 | -14.02257 | 37156 ft | 470 kts | 90° |
| 2026-05-04 17:54 | 56.00100 | -13.90570 | 37154 ft | 470 kts | 88° |
| 2026-05-04 17:54 | 56.00296 | -13.78896 | 37154 ft | 470 kts | 88° |
| 2026-05-04 17:55 | 56.00488 | -13.67186 | 37149 ft | 471 kts | 88° |
| 2026-05-04 17:55 | 56.00651 | -13.55476 | 37148 ft | 471 kts | 88° |
| 2026-05-04 17:56 | 56.00792 | -13.43846 | 37148 ft | 471 kts | 88° |
| 2026-05-04 17:56 | 56.00922 | -13.32132 | 37148 ft | 471 kts | 88° |
| 2026-05-04 17:57 | 56.01041 | -13.20420 | 37143 ft | 471 kts | 88° |
| 2026-05-04 17:57 | 56.01149 | -13.08688 | 37142 ft | 471 kts | 88° |
| 2026-05-04 17:58 | 56.01246 | -12.96984 | 37138 ft | 471 kts | 88° |
| 2026-05-04 17:58 | 56.01333 | -12.85261 | 37141 ft | 471 kts | 89° |
| 2026-05-04 17:59 | 56.01408 | -12.73621 | 37141 ft | 471 kts | 89° |
| 2026-05-04 18:00 | 56.01500 | -12.56039 | 37137 ft | 471 kts | 89° |
| 2026-05-04 18:00 | 56.01547 | -12.44317 | 37137 ft | 471 kts | 89° |
| 2026-05-04 18:01 | 56.01584 | -12.32590 | 37132 ft | 471 kts | 89° |
| 2026-05-04 18:01 | 56.01609 | -12.20869 | 37129 ft | 471 kts | 89° |
| 2026-05-04 18:02 | 56.01626 | -12.03375 | 37127 ft | 471 kts | 89° |
| 2026-05-04 18:02 | 56.01624 | -11.91660 | 37127 ft | 471 kts | 89° |
| 2026-05-04 18:03 | 56.01610 | -11.79937 | 37130 ft | 471 kts | 89° |
| 2026-05-04 18:03 | 56.01586 | -11.68221 | 37127 ft | 471 kts | 90° |
| 2026-05-04 18:04 | 56.01550 | -11.56530 | 37124 ft | 470 kts | 90° |
| 2026-05-04 18:05 | 56.01476 | -11.38986 | 37118 ft | 470 kts | 90° |
| 2026-05-04 18:05 | 56.01413 | -11.27345 | 37125 ft | 471 kts | 90° |
| 2026-05-04 18:06 | 56.01297 | -11.09783 | 37122 ft | 471 kts | 90° |
| 2026-05-04 18:06 | 56.01206 | -10.98070 | 37119 ft | 471 kts | 90° |
| 2026-05-04 18:07 | 56.01104 | -10.86343 | 37110 ft | 471 kts | 90° |
| 2026-05-04 18:07 | 56.00991 | -10.74629 | 37112 ft | 472 kts | 90° |
| 2026-05-04 18:08 | 56.00866 | -10.62891 | 37116 ft | 472 kts | 91° |
| 2026-05-04 18:08 | 56.00731 | -10.51215 | 37115 ft | 472 kts | 91° |
| 2026-05-04 18:09 | 56.00426 | -10.27733 | 37108 ft | 473 kts | 91° |
| 2026-05-04 18:10 | 56.00257 | -10.15994 | 37108 ft | 473 kts | 91° |
| 2026-05-04 18:10 | 56.00076 | -10.04214 | 37103 ft | 474 kts | 91° |
| 2026-05-04 18:11 | 55.99735 | -9.92516 | 37100 ft | 474 kts | 94° |
| 2026-05-04 18:11 | 55.99143 | -9.80785 | 37102 ft | 474 kts | 95° |
| 2026-05-04 18:12 | 55.98514 | -9.69061 | 37100 ft | 474 kts | 95° |
| 2026-05-04 18:12 | 55.97899 | -9.57326 | 37101 ft | 475 kts | 95° |
| 2026-05-04 18:13 | 55.97289 | -9.45565 | 37094 ft | 475 kts | 95° |
| 2026-05-04 18:14 | 55.96360 | -9.27934 | 37095 ft | 475 kts | 95° |
| 2026-05-04 18:14 | 55.95727 | -9.16196 | 37092 ft | 475 kts | 95° |
| 2026-05-04 18:15 | 55.94426 | -8.92760 | 37095 ft | 474 kts | 95° |
| 2026-05-04 18:16 | 55.93763 | -8.81126 | 37086 ft | 475 kts | 96° |
| 2026-05-04 18:16 | 55.93085 | -8.69420 | 37087 ft | 475 kts | 96° |
| 2026-05-04 18:17 | 55.92046 | -8.51849 | 37087 ft | 475 kts | 96° |
| 2026-05-04 18:18 | 55.90982 | -8.34282 | 37082 ft | 476 kts | 96° |
| 2026-05-04 18:18 | 55.90258 | -8.22564 | 37084 ft | 476 kts | 96° |
| 2026-05-04 18:19 | 55.89150 | -8.04981 | 37081 ft | 476 kts | 96° |
| 2026-05-04 18:19 | 55.88398 | -7.93274 | 37084 ft | 476 kts | 96° |
| 2026-05-04 18:20 | 55.87635 | -7.81575 | 37078 ft | 476 kts | 96° |
| 2026-05-04 18:20 | 55.86865 | -7.69936 | 37080 ft | 476 kts | 97° |
| 2026-05-04 18:21 | 55.86079 | -7.58223 | 37080 ft | 476 kts | 97° |
| 2026-05-04 18:21 | 55.85281 | -7.46519 | 37080 ft | 476 kts | 97° |
| 2026-05-04 18:22 | 55.84611 | -7.36813 | 37073 ft | 476 kts | 97° |
| 2026-05-04 18:22 | 55.83793 | -7.25107 | 37075 ft | 476 kts | 97° |
| 2026-05-04 18:23 | 55.82963 | -7.13403 | 37072 ft | 477 kts | 97° |
| 2026-05-04 18:23 | 55.82122 | -7.01695 | 37073 ft | 477 kts | 97° |
| 2026-05-04 18:24 | 55.81269 | -6.89994 | 37073 ft | 477 kts | 97° |
| 2026-05-04 18:24 | 55.80412 | -6.78382 | 37072 ft | 477 kts | 97° |
| 2026-05-04 18:25 | 55.79537 | -6.66679 | 37075 ft | 477 kts | 98° |
| 2026-05-04 18:25 | 55.78648 | -6.54962 | 37075 ft | 478 kts | 98° |
| 2026-05-04 18:26 | 55.77751 | -6.43268 | 37075 ft | 478 kts | 98° |
| 2026-05-04 18:26 | 55.76842 | -6.31580 | 37074 ft | 478 kts | 98° |
| 2026-05-04 18:27 | 55.75922 | -6.19895 | 37075 ft | 478 kts | 98° |
| 2026-05-04 18:27 | 55.74996 | -6.08285 | 37073 ft | 478 kts | 98° |
| 2026-05-04 18:28 | 55.74053 | -5.96597 | 37074 ft | 478 kts | 98° |
| 2026-05-04 18:28 | 55.73098 | -5.84915 | 37071 ft | 478 kts | 98° |
| 2026-05-04 18:29 | 55.72133 | -5.73248 | 37071 ft | 478 kts | 98° |
| 2026-05-04 18:29 | 55.71158 | -5.61590 | 37075 ft | 478 kts | 98° |
| 2026-05-04 18:30 | 55.69677 | -5.44154 | 37066 ft | 479 kts | 99° |
| 2026-05-04 18:31 | 55.68672 | -5.32488 | 37066 ft | 479 kts | 99° |
| 2026-05-04 18:31 | 55.67654 | -5.20804 | 37065 ft | 479 kts | 99° |
| 2026-05-04 18:32 | 55.66628 | -5.09164 | 37059 ft | 476 kts | 99° |
| 2026-05-04 18:32 | 55.65597 | -4.97605 | 37063 ft | 474 kts | 99° |
| 2026-05-04 18:33 | 55.64565 | -4.86150 | 37060 ft | 474 kts | 99° |
| 2026-05-04 18:33 | 55.63514 | -4.74611 | 37059 ft | 474 kts | 99° |
| 2026-05-04 18:34 | 55.62451 | -4.63072 | 37057 ft | 474 kts | 99° |
| 2026-05-04 18:34 | 55.61377 | -4.51530 | 37052 ft | 475 kts | 99° |
| 2026-05-04 18:35 | 55.60301 | -4.40092 | 37053 ft | 475 kts | 99° |
| 2026-05-04 18:35 | 55.59207 | -4.28576 | 37053 ft | 475 kts | 99° |
| 2026-05-04 18:36 | 55.58100 | -4.17044 | 37047 ft | 475 kts | 100° |
| 2026-05-04 18:36 | 55.56981 | -4.05515 | 37048 ft | 476 kts | 100° |
| 2026-05-04 18:37 | 55.55851 | -3.93992 | 37045 ft | 476 kts | 100° |
| 2026-05-04 18:37 | 55.54711 | -3.82480 | 37045 ft | 476 kts | 100° |
| 2026-05-04 18:38 | 55.53565 | -3.71017 | 37043 ft | 476 kts | 100° |
| 2026-05-04 18:38 | 55.52402 | -3.59502 | 37042 ft | 476 kts | 100° |
| 2026-05-04 18:39 | 55.51227 | -3.47986 | 37039 ft | 476 kts | 100° |
| 2026-05-04 18:39 | 55.50043 | -3.36496 | 37041 ft | 476 kts | 101° |
| 2026-05-04 18:40 | 55.48681 | -3.25149 | 37033 ft | 475 kts | 103° |
| 2026-05-04 18:40 | 55.47177 | -3.13826 | 37032 ft | 471 kts | 103° |
| 2026-05-04 18:41 | 55.45676 | -3.02624 | 37031 ft | 469 kts | 103° |
| 2026-05-04 18:41 | 55.44187 | -2.91439 | 37030 ft | 468 kts | 103° |
| 2026-05-04 18:42 | 55.42698 | -2.80265 | 37027 ft | 468 kts | 103° |
| 2026-05-04 18:42 | 55.41201 | -2.69091 | 37027 ft | 468 kts | 104° |
| 2026-05-04 18:43 | 55.39694 | -2.57939 | 37023 ft | 468 kts | 104° |
| 2026-05-04 18:43 | 55.38187 | -2.46866 | 37021 ft | 468 kts | 104° |
| 2026-05-04 18:44 | 55.36658 | -2.35726 | 37015 ft | 468 kts | 104° |
| 2026-05-04 18:44 | 55.35119 | -2.24587 | 37017 ft | 468 kts | 104° |
| 2026-05-04 18:45 | 55.33571 | -2.13473 | 37017 ft | 468 kts | 104° |
| 2026-05-04 18:45 | 55.32015 | -2.02373 | 37018 ft | 468 kts | 104° |
| 2026-05-04 18:46 | 55.30445 | -1.91261 | 37016 ft | 468 kts | 104° |
| 2026-05-04 18:46 | 55.28866 | -1.80168 | 37000 ft | 468 kts | 104° |
| 2026-05-04 18:47 | 55.27287 | -1.69146 | 36997 ft | 468 kts | 104° |
| 2026-05-04 18:47 | 55.25689 | -1.58070 | 36998 ft | 468 kts | 105° |
| 2026-05-04 18:48 | 55.24085 | -1.47033 | 36996 ft | 465 kts | 104° |
| 2026-05-04 18:48 | 55.22479 | -1.36061 | 37000 ft | 464 kts | 104° |
| 2026-05-04 18:49 | 55.20869 | -1.25136 | 37007 ft | 464 kts | 105° |
| 2026-05-04 18:49 | 55.19246 | -1.14198 | 37009 ft | 463 kts | 105° |
| 2026-05-04 18:50 | 55.17616 | -1.03287 | 37011 ft | 463 kts | 105° |
| 2026-05-04 18:50 | 55.15986 | -0.92452 | 37010 ft | 463 kts | 105° |
| 2026-05-04 18:51 | 55.14328 | -0.81497 | 37009 ft | 463 kts | 105° |
| 2026-05-04 18:51 | 55.12678 | -0.70675 | 37011 ft | 463 kts | 105° |
| 2026-05-04 18:52 | 55.11008 | -0.59793 | 37013 ft | 463 kts | 105° |
| 2026-05-04 18:52 | 55.09327 | -0.48911 | 37011 ft | 464 kts | 105° |
| 2026-05-04 18:53 | 55.07638 | -0.38049 | 37016 ft | 464 kts | 105° |
| 2026-05-04 18:53 | 55.05938 | -0.27188 | 37017 ft | 463 kts | 105° |
| 2026-05-04 18:54 | 55.04229 | -0.16342 | 37016 ft | 463 kts | 105° |
| 2026-05-04 18:54 | 55.02512 | -0.05509 | 37016 ft | 464 kts | 105° |
| 2026-05-04 18:55 | 55.00784 | 0.05319 | 37010 ft | 463 kts | 106° |
| 2026-05-04 18:55 | 54.98191 | 0.21435 | 37017 ft | 462 kts | 106° |
| 2026-05-04 18:56 | 54.96446 | 0.32194 | 37023 ft | 462 kts | 106° |
| 2026-05-04 18:56 | 54.94692 | 0.42947 | 37023 ft | 462 kts | 106° |
| 2026-05-04 18:57 | 54.92928 | 0.53688 | 37027 ft | 461 kts | 106° |
| 2026-05-04 18:57 | 54.91168 | 0.64342 | 37026 ft | 460 kts | 106° |
| 2026-05-04 18:58 | 54.89391 | 0.75030 | 37028 ft | 460 kts | 107° |
| 2026-05-04 18:58 | 54.87607 | 0.85699 | 37028 ft | 460 kts | 107° |
| 2026-05-04 18:59 | 54.85814 | 0.96351 | 37035 ft | 460 kts | 107° |
| 2026-05-04 18:59 | 54.84012 | 1.06994 | 37034 ft | 460 kts | 107° |
| 2026-05-04 19:00 | 54.82201 | 1.17628 | 37036 ft | 459 kts | 107° |
| 2026-05-04 19:00 | 54.80382 | 1.28238 | 37036 ft | 459 kts | 107° |
| 2026-05-04 19:01 | 54.78567 | 1.38769 | 37037 ft | 459 kts | 107° |
| 2026-05-04 19:01 | 54.76732 | 1.49347 | 37038 ft | 459 kts | 107° |
| 2026-05-04 19:02 | 54.74887 | 1.59925 | 37038 ft | 459 kts | 107° |
| 2026-05-04 19:02 | 54.73034 | 1.70488 | 37040 ft | 458 kts | 107° |
| 2026-05-04 19:03 | 54.71174 | 1.81027 | 37042 ft | 457 kts | 108° |
| 2026-05-04 19:03 | 54.69307 | 1.91542 | 37044 ft | 457 kts | 108° |
| 2026-05-04 19:04 | 54.67441 | 2.01992 | 37049 ft | 457 kts | 108° |
| 2026-05-04 19:04 | 54.65557 | 2.12482 | 37045 ft | 457 kts | 108° |
| 2026-05-04 19:05 | 54.63665 | 2.22957 | 37049 ft | 457 kts | 108° |
| 2026-05-04 19:05 | 54.61760 | 2.33443 | 37050 ft | 457 kts | 108° |
| 2026-05-04 19:06 | 54.59857 | 2.43864 | 37047 ft | 457 kts | 108° |
| 2026-05-04 19:06 | 54.57935 | 2.54326 | 37052 ft | 457 kts | 108° |
| 2026-05-04 19:07 | 54.56004 | 2.64778 | 37050 ft | 457 kts | 108° |
| 2026-05-04 19:07 | 54.54063 | 2.75224 | 37051 ft | 458 kts | 109° |
| 2026-05-04 19:08 | 54.52113 | 2.85662 | 37046 ft | 458 kts | 109° |
| 2026-05-04 19:08 | 54.50167 | 2.96021 | 37049 ft | 458 kts | 109° |
| 2026-05-04 19:09 | 54.48199 | 3.06442 | 37052 ft | 458 kts | 109° |
| 2026-05-04 19:09 | 54.46222 | 3.16849 | 37050 ft | 458 kts | 109° |
| 2026-05-04 19:10 | 54.44573 | 3.25486 | 37051 ft | 458 kts | 109° |
| 2026-05-04 19:10 | 54.42578 | 3.35885 | 37054 ft | 458 kts | 109° |
| 2026-05-04 19:11 | 54.40573 | 3.46281 | 37054 ft | 458 kts | 109° |
| 2026-05-04 19:11 | 54.38560 | 3.56658 | 37051 ft | 458 kts | 109° |
| 2026-05-04 19:12 | 54.35524 | 3.72209 | 37052 ft | 458 kts | 109° |
| 2026-05-04 19:13 | 54.33487 | 3.82573 | 37058 ft | 460 kts | 110° |
| 2026-05-04 19:13 | 54.31428 | 3.92989 | 37056 ft | 461 kts | 110° |
| 2026-05-04 19:14 | 54.29376 | 4.03320 | 37054 ft | 461 kts | 110° |
| 2026-05-04 19:14 | 54.27303 | 4.13700 | 37049 ft | 461 kts | 110° |
| 2026-05-04 19:15 | 54.25216 | 4.24094 | 37049 ft | 461 kts | 110° |
| 2026-05-04 19:15 | 54.23450 | 4.34676 | 37047 ft | 464 kts | 105° |
| 2026-05-04 19:16 | 54.22012 | 4.45444 | 37052 ft | 465 kts | 104° |
| 2026-05-04 19:16 | 54.20627 | 4.56246 | 37052 ft | 465 kts | 103° |
| 2026-05-04 19:17 | 54.19233 | 4.67055 | 37045 ft | 465 kts | 104° |
| 2026-05-04 19:17 | 54.17819 | 4.77851 | 37045 ft | 465 kts | 104° |
| 2026-05-04 19:18 | 54.16403 | 4.88546 | 37049 ft | 465 kts | 104° |
| 2026-05-04 19:18 | 54.14958 | 4.99374 | 37050 ft | 465 kts | 104° |
| 2026-05-04 19:19 | 54.13519 | 5.10079 | 37044 ft | 465 kts | 104° |
| 2026-05-04 19:19 | 54.12062 | 5.20848 | 37045 ft | 465 kts | 104° |
| 2026-05-04 19:20 | 54.10594 | 5.31613 | 37038 ft | 466 kts | 105° |
| 2026-05-04 19:20 | 54.09116 | 5.42376 | 37042 ft | 467 kts | 105° |
| 2026-05-04 19:21 | 54.07637 | 5.53068 | 37043 ft | 467 kts | 105° |
| 2026-05-04 19:21 | 54.06137 | 5.63835 | 37042 ft | 467 kts | 105° |
| 2026-05-04 19:22 | 54.04628 | 5.74584 | 37036 ft | 467 kts | 105° |
| 2026-05-04 19:22 | 54.03111 | 5.85325 | 37035 ft | 468 kts | 105° |
| 2026-05-04 19:23 | 54.01577 | 5.96102 | 37037 ft | 469 kts | 105° |
| 2026-05-04 19:23 | 54.00032 | 6.06883 | 37036 ft | 469 kts | 106° |
| 2026-05-04 19:24 | 53.98476 | 6.17667 | 37029 ft | 469 kts | 106° |
| 2026-05-04 19:24 | 53.96921 | 6.28370 | 37031 ft | 469 kts | 106° |
| 2026-05-04 19:25 | 53.95344 | 6.39143 | 37032 ft | 471 kts | 106° |
| 2026-05-04 19:25 | 53.93753 | 6.49947 | 37032 ft | 472 kts | 106° |
| 2026-05-04 19:26 | 53.92150 | 6.60751 | 37028 ft | 472 kts | 106° |
| 2026-05-04 19:26 | 53.90537 | 6.71558 | 37029 ft | 472 kts | 106° |
| 2026-05-04 19:27 | 53.88916 | 6.82337 | 37015 ft | 472 kts | 107° |
| 2026-05-04 19:27 | 53.87291 | 6.93069 | 37021 ft | 474 kts | 107° |
| 2026-05-04 19:28 | 53.85642 | 7.03896 | 37020 ft | 474 kts | 107° |
| 2026-05-04 19:28 | 53.83986 | 7.14693 | 37020 ft | 474 kts | 107° |
| 2026-05-04 19:29 | 53.82318 | 7.25491 | 37020 ft | 474 kts | 107° |
| 2026-05-04 19:29 | 53.80639 | 7.36292 | 37012 ft | 474 kts | 107° |
| 2026-05-04 19:30 | 53.78948 | 7.47101 | 37015 ft | 475 kts | 107° |
| 2026-05-04 19:30 | 53.77249 | 7.57890 | 37020 ft | 475 kts | 107° |
| 2026-05-04 19:31 | 53.75547 | 7.68627 | 37020 ft | 475 kts | 107° |
| 2026-05-04 19:31 | 53.73825 | 7.79421 | 37015 ft | 475 kts | 108° |
| 2026-05-04 19:32 | 53.72092 | 7.90215 | 37016 ft | 476 kts | 108° |
| 2026-05-04 19:32 | 53.70359 | 8.00936 | 37011 ft | 477 kts | 108° |
| 2026-05-04 19:33 | 53.68602 | 8.11737 | 37007 ft | 477 kts | 108° |
| 2026-05-04 19:33 | 53.66839 | 8.22510 | 37002 ft | 477 kts | 108° |
| 2026-05-04 19:34 | 53.65066 | 8.33278 | 37002 ft | 477 kts | 108° |
| 2026-05-04 19:34 | 53.63280 | 8.44050 | 36996 ft | 477 kts | 108° |
| 2026-05-04 19:35 | 53.61483 | 8.54825 | 36994 ft | 478 kts | 108° |
| 2026-05-04 19:35 | 53.59676 | 8.65597 | 36993 ft | 478 kts | 108° |
| 2026-05-04 19:36 | 53.57859 | 8.76356 | 36991 ft | 478 kts | 108° |
| 2026-05-04 19:36 | 53.56043 | 8.87044 | 36989 ft | 478 kts | 108° |
| 2026-05-04 19:37 | 53.54209 | 8.97778 | 36986 ft | 478 kts | 109° |
| 2026-05-04 19:37 | 53.52362 | 9.08516 | 36986 ft | 477 kts | 109° |
| 2026-05-04 19:38 | 53.50510 | 9.19220 | 36983 ft | 477 kts | 109° |
| 2026-05-04 19:38 | 53.48646 | 9.29928 | 36983 ft | 477 kts | 109° |
| 2026-05-04 19:39 | 53.46773 | 9.40625 | 36984 ft | 478 kts | 109° |
| 2026-05-04 19:39 | 53.45836 | 9.45959 | 36651 ft | 474 kts | 109° |
| 2026-05-04 19:39 | 53.44901 | 9.51262 | 35917 ft | 474 kts | 109° |
| 2026-05-04 19:39 | 53.43958 | 9.56586 | 35084 ft | 477 kts | 110° |
| 2026-05-04 19:40 | 53.43020 | 9.61866 | 34273 ft | 480 kts | 110° |
| 2026-05-04 19:40 | 53.42061 | 9.67249 | 33375 ft | 483 kts | 110° |
| 2026-05-04 19:40 | 53.41094 | 9.72663 | 32512 ft | 484 kts | 110° |
| 2026-05-04 19:40 | 53.40126 | 9.78071 | 31725 ft | 484 kts | 111° |
| 2026-05-04 19:41 | 53.39159 | 9.83458 | 30932 ft | 483 kts | 111° |
| 2026-05-04 19:41 | 53.38185 | 9.88870 | 30122 ft | 483 kts | 111° |
| 2026-05-04 19:41 | 53.37212 | 9.94262 | 29152 ft | 484 kts | 111° |
| 2026-05-04 19:41 | 53.36235 | 9.99652 | 28210 ft | 483 kts | 111° |
| 2026-05-04 19:42 | 53.35256 | 10.05032 | 27257 ft | 483 kts | 111° |
| 2026-05-04 19:42 | 53.34274 | 10.10419 | 26310 ft | 482 kts | 111° |
| 2026-05-04 19:42 | 53.33291 | 10.15794 | 25530 ft | 485 kts | 110° |
| 2026-05-04 19:42 | 53.32295 | 10.21215 | 25107 ft | 491 kts | 110° |
| 2026-05-04 19:43 | 53.31298 | 10.26629 | 24978 ft | 493 kts | 110° |
| 2026-05-04 19:43 | 53.30287 | 10.32111 | 24961 ft | 493 kts | 110° |
| 2026-05-04 19:43 | 53.29286 | 10.37528 | 24968 ft | 493 kts | 110° |
| 2026-05-04 19:43 | 53.28271 | 10.43007 | 24968 ft | 494 kts | 110° |
| 2026-05-04 19:44 | 53.27249 | 10.48501 | 24964 ft | 495 kts | 111° |
| 2026-05-04 19:44 | 53.26227 | 10.53984 | 24962 ft | 495 kts | 111° |
| 2026-05-04 19:44 | 53.25201 | 10.59467 | 24966 ft | 495 kts | 111° |
| 2026-05-04 19:44 | 53.24169 | 10.64965 | 24964 ft | 495 kts | 111° |
| 2026-05-04 19:45 | 53.23136 | 10.70453 | 24966 ft | 495 kts | 111° |
| 2026-05-04 19:45 | 53.22101 | 10.75938 | 24958 ft | 495 kts | 111° |
| 2026-05-04 19:45 | 53.21064 | 10.81412 | 24953 ft | 495 kts | 111° |
| 2026-05-04 19:45 | 53.20037 | 10.86823 | 24960 ft | 495 kts | 111° |
| 2026-05-04 19:46 | 53.18997 | 10.92289 | 24970 ft | 495 kts | 111° |
| 2026-05-04 19:46 | 53.17952 | 10.97760 | 24969 ft | 495 kts | 111° |
| 2026-05-04 19:46 | 53.16904 | 11.03232 | 24963 ft | 495 kts | 111° |
| 2026-05-04 19:46 | 53.15852 | 11.08706 | 24957 ft | 495 kts | 111° |
| 2026-05-04 19:47 | 53.14800 | 11.14166 | 24960 ft | 495 kts | 111° |
| 2026-05-04 19:47 | 53.13757 | 11.19566 | 24964 ft | 495 kts | 111° |
| 2026-05-04 19:47 | 53.12693 | 11.25005 | 24963 ft | 494 kts | 113° |
| 2026-05-04 19:47 | 53.11343 | 11.30237 | 24952 ft | 491 kts | 119° |
| 2026-05-04 19:48 | 53.09859 | 11.35187 | 24958 ft | 492 kts | 121° |
| 2026-05-04 19:48 | 53.08264 | 11.40215 | 24960 ft | 493 kts | 122° |
| 2026-05-04 19:48 | 53.06623 | 11.45221 | 24953 ft | 493 kts | 123° |
| 2026-05-04 19:48 | 53.04960 | 11.50224 | 24955 ft | 493 kts | 122° |
| 2026-05-04 19:49 | 53.03532 | 11.55421 | 24955 ft | 497 kts | 114° |
| 2026-05-04 19:49 | 53.02414 | 11.60868 | 24960 ft | 498 kts | 111° |
| 2026-05-04 19:49 | 53.01406 | 11.66378 | 24954 ft | 499 kts | 109° |
| 2026-05-04 19:49 | 53.00464 | 11.71908 | 24647 ft | 494 kts | 109° |
| 2026-05-04 19:50 | 52.99571 | 11.77358 | 23790 ft | 490 kts | 107° |
| 2026-05-04 19:50 | 52.99036 | 11.82935 | 22850 ft | 490 kts | 98° |
| 2026-05-04 19:50 | 52.98762 | 11.88537 | 21998 ft | 483 kts | 96° |
| 2026-05-04 19:50 | 52.98579 | 11.94065 | 21196 ft | 476 kts | 95° |
| 2026-05-04 19:51 | 52.98440 | 11.99515 | 20414 ft | 469 kts | 94° |
| 2026-05-04 19:51 | 52.98319 | 12.04814 | 19644 ft | 462 kts | 94° |
| 2026-05-04 19:51 | 52.98195 | 12.10109 | 18883 ft | 455 kts | 94° |
| 2026-05-04 19:51 | 52.98064 | 12.15319 | 18121 ft | 449 kts | 94° |
| 2026-05-04 19:52 | 52.97926 | 12.20453 | 17247 ft | 443 kts | 94° |
| 2026-05-04 19:52 | 52.97619 | 12.25486 | 16368 ft | 435 kts | 103° |
| 2026-05-04 19:52 | 52.96779 | 12.30265 | 15482 ft | 428 kts | 115° |
| 2026-05-04 19:52 | 52.95361 | 12.34524 | 14648 ft | 419 kts | 128° |
| 2026-05-04 19:53 | 52.93422 | 12.38034 | 13833 ft | 409 kts | 142° |
| 2026-05-04 19:53 | 52.91142 | 12.40814 | 12943 ft | 403 kts | 148° |
| 2026-05-04 19:53 | 52.88805 | 12.43338 | 12057 ft | 398 kts | 150° |
| 2026-05-04 19:53 | 52.86488 | 12.45794 | 11208 ft | 393 kts | 150° |
| 2026-05-04 19:54 | 52.84206 | 12.48214 | 10613 ft | 384 kts | 150° |
| 2026-05-04 19:54 | 52.82036 | 12.50526 | 10322 ft | 366 kts | 150° |
| 2026-05-04 19:54 | 52.79949 | 12.52753 | 10090 ft | 349 kts | 150° |
| 2026-05-04 19:54 | 52.77966 | 12.54870 | 9953 ft | 328 kts | 150° |
| 2026-05-04 19:55 | 52.76110 | 12.56852 | 9936 ft | 306 kts | 150° |
| 2026-05-04 19:55 | 52.74367 | 12.58710 | 9945 ft | 294 kts | 151° |
| 2026-05-04 19:55 | 52.72651 | 12.60532 | 9906 ft | 293 kts | 151° |
| 2026-05-04 19:55 | 52.70932 | 12.62355 | 9738 ft | 293 kts | 151° |
| 2026-05-04 19:56 | 52.69218 | 12.64171 | 9539 ft | 293 kts | 150° |
| 2026-05-04 19:56 | 52.67506 | 12.65988 | 9355 ft | 293 kts | 150° |
| 2026-05-04 19:56 | 52.65795 | 12.67801 | 9189 ft | 292 kts | 150° |
| 2026-05-04 19:56 | 52.64088 | 12.69611 | 9045 ft | 291 kts | 150° |
| 2026-05-04 19:57 | 52.62387 | 12.71413 | 8881 ft | 291 kts | 150° |
| 2026-05-04 19:57 | 52.60717 | 12.73303 | 8729 ft | 291 kts | 147° |
| 2026-05-04 19:57 | 52.59083 | 12.75265 | 8561 ft | 289 kts | 147° |
| 2026-05-04 19:57 | 52.57506 | 12.77185 | 8422 ft | 275 kts | 147° |
| 2026-05-04 19:58 | 52.56507 | 12.78404 | 8349 ft | 265 kts | 147° |
| 2026-05-04 19:58 | 52.55053 | 12.80174 | 8220 ft | 255 kts | 147° |
| 2026-05-04 19:58 | 52.53631 | 12.81899 | 8116 ft | 253 kts | 147° |
| 2026-05-04 19:58 | 52.52212 | 12.83615 | 8021 ft | 253 kts | 147° |
| 2026-05-04 19:59 | 52.50796 | 12.85327 | 7979 ft | 253 kts | 147° |
| 2026-05-04 19:59 | 52.49377 | 12.87041 | 7825 ft | 253 kts | 147° |
| 2026-05-04 19:59 | 52.47956 | 12.88757 | 7615 ft | 252 kts | 147° |
| 2026-05-04 19:59 | 52.46562 | 12.90440 | 7374 ft | 251 kts | 146° |
| 2026-05-04 20:00 | 52.45156 | 12.92137 | 7124 ft | 250 kts | 146° |
| 2026-05-04 20:00 | 52.43781 | 12.93795 | 6884 ft | 250 kts | 146° |
| 2026-05-04 20:00 | 52.42383 | 12.95478 | 6638 ft | 249 kts | 146° |
| 2026-05-04 20:00 | 52.40955 | 12.97045 | 6388 ft | 246 kts | 156° |
| 2026-05-04 20:01 | 52.39386 | 12.98088 | 6147 ft | 243 kts | 163° |
| 2026-05-04 20:01 | 52.37774 | 12.98968 | 5808 ft | 243 kts | 164° |
| 2026-05-04 20:01 | 52.36173 | 12.99803 | 5416 ft | 241 kts | 165° |
| 2026-05-04 20:01 | 52.34572 | 13.00621 | 5045 ft | 240 kts | 165° |
| 2026-05-04 20:02 | 52.32975 | 13.01423 | 4673 ft | 238 kts | 165° |
| 2026-05-04 20:02 | 52.31394 | 13.02205 | 4290 ft | 237 kts | 165° |
| 2026-05-04 20:02 | 52.29835 | 13.02965 | 3928 ft | 235 kts | 165° |
| 2026-05-04 20:02 | 52.28286 | 13.03714 | 3568 ft | 230 kts | 164° |
| 2026-05-04 20:03 | 52.26787 | 13.04546 | 3198 ft | 226 kts | 155° |
| 2026-05-04 20:03 | 52.25531 | 13.05952 | 3000 ft | 213 kts | 129° |
| 2026-05-04 20:03 | 52.24981 | 13.08134 | 2983 ft | 211 kts | 94° |
| 2026-05-04 20:03 | 52.25251 | 13.10461 | 2982 ft | 211 kts | 66° |
| 2026-05-04 20:04 | 52.25992 | 13.12522 | 2991 ft | 211 kts | 54° |
| 2026-05-04 20:04 | 52.26785 | 13.14555 | 2990 ft | 212 kts | 62° |
| 2026-05-04 20:04 | 52.27386 | 13.16745 | 2917 ft | 211 kts | 68° |
| 2026-05-04 20:04 | 52.27913 | 13.18968 | 2588 ft | 205 kts | 68° |
| 2026-05-04 20:05 | 52.28405 | 13.21069 | 2383 ft | 193 kts | 68° |
| 2026-05-04 20:05 | 52.28880 | 13.23077 | 2095 ft | 186 kts | 67° |
| 2026-05-04 20:05 | 52.29339 | 13.25004 | 1991 ft | 174 kts | 67° |
| 2026-05-04 20:05 | 52.29761 | 13.26768 | 1993 ft | 164 kts | 67° |
| 2026-05-04 20:06 | 52.30175 | 13.28497 | 1998 ft | 164 kts | 67° |
| 2026-05-04 20:06 | 52.30591 | 13.30235 | 2000 ft | 164 kts | 67° |
| 2026-05-04 20:06 | 52.31004 | 13.31972 | 2001 ft | 164 kts | 67° |
| 2026-05-04 20:06 | 52.31418 | 13.33711 | 1889 ft | 164 kts | 67° |
| 2026-05-04 20:07 | 52.31821 | 13.35409 | 1691 ft | 161 kts | 67° |
| 2026-05-04 20:07 | 52.32222 | 13.37097 | 1449 ft | 161 kts | 66° |
| 2026-05-04 20:07 | 52.32630 | 13.38813 | 1226 ft | 160 kts | 66° |
| 2026-05-04 20:07 | 52.33035 | 13.40514 | 1011 ft | 160 kts | 67° |
| 2026-05-04 20:08 | 52.33433 | 13.42205 | 807 ft | 155 kts | 67° |
| 2026-05-04 20:08 | 52.33809 | 13.43777 | 574 ft | 142 kts | 67° |
| 2026-05-04 20:08 | 52.34152 | 13.45201 | 408 ft | 129 kts | 69° |
| 2026-05-04 20:08 | 52.34478 | 13.46563 | 248 ft | 128 kts | 68° |
| 2026-05-04 20:09 | 52.34790 | 13.47880 | 157 ft | 112 kts | 70° |
| 2026-05-04 20:09 | 52.35002 | 13.48789 | 157 ft | 62 kts | 69° |
| 2026-05-04 20:09 | 52.35141 | 13.49356 | 157 ft | 50 kts | 67° |
| 2026-05-04 20:09 | 52.35254 | 13.49807 | 157 ft | 36 kts | 55° |
| 2026-05-04 20:10 | 52.35382 | 13.50004 | 157 ft | 23 kts | 37° |
| 2026-05-04 20:10 | 52.35464 | 13.50111 | 157 ft | 13 kts | 39° |
| 2026-05-04 20:10 | 52.35538 | 13.50210 | 157 ft | 14 kts | 39° |
| 2026-05-04 20:10 | 52.35595 | 13.50292 | 157 ft | 12 kts | 55° |
| 2026-05-04 20:11 | 52.35629 | 13.50420 | 157 ft | 13 kts | 69° |
| 2026-05-04 20:11 | 52.35656 | 13.50537 | 158 ft | 14 kts | 69° |
| 2026-05-04 20:11 | 52.35692 | 13.50690 | 158 ft | 15 kts | 69° |
| 2026-05-04 20:11 | 52.35722 | 13.50806 | 158 ft | 7 kts | 53° |
| 2026-05-04 20:12 | 52.35783 | 13.50829 | 158 ft | 13 kts | 340° |
| 2026-05-04 20:12 | 52.35865 | 13.50766 | 158 ft | 14 kts | 336° |
| 2026-05-04 20:12 | 52.35956 | 13.50709 | 158 ft | 15 kts | 341° |
| 2026-05-04 20:12 | 52.36053 | 13.50647 | 158 ft | 15 kts | 338° |
| 2026-05-04 20:13 | 52.36090 | 13.50623 | 158 ft | 0 kts | 338° |
| 2026-05-04 20:13 | 52.36102 | 13.50615 | 158 ft | 2 kts | 340° |
| 2026-05-04 20:13 | 52.36121 | 13.50604 | 158 ft | 4 kts | 339° |
| 2026-05-04 20:13 | 52.36147 | 13.50605 | 158 ft | 1 kts | 30° |
| 2026-05-04 20:14 | 52.36157 | 13.50619 | 158 ft | 3 kts | 40° |
| 2026-05-04 20:14 | 52.36179 | 13.50654 | 158 ft | 0 kts | 44° |
| 2026-05-04 20:14 | 52.36180 | 13.50654 | 158 ft | 1 kts | 44° |
| 2026-05-04 20:14 | 52.36191 | 13.50666 | 158 ft | 1 kts | 33° |
| 2026-05-04 20:15 | 52.36205 | 13.50689 | 158 ft | 4 kts | 55° |
| 2026-05-04 20:15 | 52.36210 | 13.50704 | 158 ft | 0 kts | 68° |
| 2026-05-04 20:15 | 52.36207 | 13.50693 | 158 ft | 0 kts | 68° |